Time;durP1;ratioP1;P1;durP2;ratioP2;P2;SDS_P1;SDS_P2;PMS_P1;PMS_P2;Temp;Humidity;BMP_temperature;BMP_pressure;BME280_temperature;BME280_humidity;BME280_pressure;Samples;Min_cycle;Max_cycle;Signal;HPM_P1;HPM_P2
2023/12/21 00:00:56;;;;;;;3.20;0.50;;;;;;;;;;5023747;28;20021;-58
2023/12/21 00:03:21;;;;;;;2.77;0.60;;;;;;;;;;5021223;28;20095;-58
2023/12/21 00:05:46;;;;;;;1.80;0.50;;;;;;;;;;5018903;28;20442;-59
2023/12/21 00:08:11;;;;;;;2.20;0.50;;;;;;;;;;5016191;28;20525;-58
2023/12/21 00:10:38;;;;;;;1.77;0.50;;;;;;;;;;5029422;28;20100;-59
2023/12/21 00:13:03;;;;;;;2.50;0.50;;;;;;;;;;5024140;28;20432;-59
2023/12/21 00:15:28;;;;;;;3.10;0.50;;;;;;;;;;5012299;28;20135;-59
2023/12/21 00:17:53;;;;;;;1.70;0.40;;;;;;;;;;5012557;28;20040;-59
2023/12/21 00:20:20;;;;;;;1.73;0.57;;;;;;;;;;5027327;28;20022;-59
2023/12/21 00:22:45;;;;;;;;;;;;;;;;;;5020069;28;20036;-59
2023/12/21 00:25:10;;;;;;;1.55;0.50;;;;;;;;;;5019947;28;19913;-59
2023/12/21 00:27:35;;;;;;;2.53;0.50;;;;;;;;;;5020306;28;20038;-59
2023/12/21 00:30:00;;;;;;;1.67;0.40;;;;;;;;;;5027468;28;20014;-59
2023/12/21 00:32:26;;;;;;;2.47;0.60;;;;;;;;;;5023184;28;20021;-59
2023/12/21 00:34:51;;;;;;;2.20;0.50;;;;;;;;;;5032444;28;20028;-59
2023/12/21 00:37:16;;;;;;;2.15;0.50;;;;;;;;;;5031565;28;20025;-59
2023/12/21 00:39:41;;;;;;;1.83;0.50;;;;;;;;;;5026913;28;20042;-59
2023/12/21 00:42:06;;;;;;;1.50;0.40;;;;;;;;;;5021684;28;20456;-59
2023/12/21 00:44:31;;;;;;;1.50;0.68;;;;;;;;;;5020760;28;20029;-60
2023/12/21 00:46:56;;;;;;;1.63;0.50;;;;;;;;;;5015515;28;20064;-59
2023/12/21 00:49:22;;;;;;;0.75;0.30;;;;;;;;;;5021199;28;20032;-60
2023/12/21 00:51:47;;;;;;;1.83;0.40;;;;;;;;;;5019450;28;20099;-59
2023/12/21 00:54:12;;;;;;;3.47;0.50;;;;;;;;;;5012108;28;20026;-59
2023/12/21 00:56:38;;;;;;;2.03;0.40;;;;;;;;;;5011908;28;20028;-60
2023/12/21 00:59:04;;;;;;;1.45;0.40;;;;;;;;;;5017050;28;20022;-59
2023/12/21 01:01:29;;;;;;;1.02;0.30;;;;;;;;;;5026186;28;20033;-59
2023/12/21 01:03:54;;;;;;;0.73;0.30;;;;;;;;;;5022407;28;20029;-59
2023/12/21 01:06:19;;;;;;;1.57;0.47;;;;;;;;;;5032178;28;20049;-59
2023/12/21 01:08:44;;;;;;;1.43;0.30;;;;;;;;;;5032101;28;20032;-60
2023/12/21 01:11:10;;;;;;;0.70;0.30;;;;;;;;;;5024349;28;20401;-58
2023/12/21 01:13:36;;;;;;;1.05;0.30;;;;;;;;;;5033048;28;20477;-59
2023/12/21 01:16:01;;;;;;;0.40;0.20;;;;;;;;;;5023013;28;20068;-60
2023/12/21 01:18:26;;;;;;;1.40;0.38;;;;;;;;;;5011061;28;20022;-59
2023/12/21 01:20:51;;;;;;;0.93;0.40;;;;;;;;;;5010981;28;20029;-60
2023/12/21 01:23:16;;;;;;;0.90;0.30;;;;;;;;;;5014774;28;20531;-58
2023/12/21 01:25:41;;;;;;;0.30;0.20;;;;;;;;;;5020522;28;20018;-59
2023/12/21 01:28:06;;;;;;;0.13;0.10;;;;;;;;;;5019192;28;20022;-59
2023/12/21 01:30:32;;;;;;;1.40;1.27;;;;;;;;;;5010865;28;20022;-59
2023/12/21 01:32:57;;;;;;;1.08;0.17;;;;;;;;;;5014044;28;20461;-57
2023/12/21 01:35:22;;;;;;;0.70;0.30;;;;;;;;;;5021738;28;20025;-59
2023/12/21 01:37:47;;;;;;;0.33;0.20;;;;;;;;;;5025494;28;20409;-59
2023/12/21 01:40:12;;;;;;;0.50;0.10;;;;;;;;;;5025070;28;20022;-58
2023/12/21 01:42:37;;;;;;;0.50;0.20;;;;;;;;;;5030100;28;20017;-60
2023/12/21 01:45:03;;;;;;;0.47;0.30;;;;;;;;;;5021175;28;20097;-59
2023/12/21 01:47:28;;;;;;;1.13;0.10;;;;;;;;;;5019515;28;20061;-59
2023/12/21 01:49:53;;;;;;;0.75;0.50;;;;;;;;;;5018560;28;20017;-60
2023/12/21 01:52:19;;;;;;;1.37;0.10;;;;;;;;;;5015262;28;20096;-57
2023/12/21 01:54:44;;;;;;;0.90;0.40;;;;;;;;;;5030707;28;20025;-58
2023/12/21 01:57:09;;;;;;;0.28;0.10;;;;;;;;;;5013966;28;20184;-58
2023/12/21 01:59:34;;;;;;;0.13;0.10;;;;;;;;;;5030682;28;20443;-58
2023/12/21 02:02:00;;;;;;;0.23;0.13;;;;;;;;;;5030084;28;20096;-57
2023/12/21 02:04:25;;;;;;;0.35;0.10;;;;;;;;;;5031385;28;20260;-57
2023/12/21 02:06:50;;;;;;;1.37;0.30;;;;;;;;;;5028538;28;20080;-58
2023/12/21 02:09:15;;;;;;;0.80;0.10;;;;;;;;;;5017085;28;20030;-58
2023/12/21 02:11:40;;;;;;;0.20;0.10;;;;;;;;;;5013864;28;20060;-59
2023/12/21 02:14:05;;;;;;;0.40;0.20;;;;;;;;;;5020650;28;20100;-59
2023/12/21 02:16:35;;;;;;;11.13;9.90;;;;;;;;;;5019990;28;20086;-63
2023/12/21 02:19:00;;;;;;;0.10;0.10;;;;;;;;;;5017454;28;20111;-58
2023/12/21 02:21:26;;;;;;;0.40;0.10;;;;;;;;;;5027896;28;20486;-57
2023/12/21 02:23:53;;;;;;;1.08;0.20;;;;;;;;;;5021451;28;20362;-57
2023/12/21 02:26:18;;;;;;;1.80;0.32;;;;;;;;;;5020362;28;20018;-57
2023/12/21 02:28:43;;;;;;;1.27;0.90;;;;;;;;;;5021804;28;20021;-60
2023/12/21 02:31:09;;;;;;;9.77;8.85;;;;;;;;;;5029737;28;20064;-60
2023/12/21 02:33:34;;;;;;;1.55;0.35;;;;;;;;;;5029703;28;20034;-58
2023/12/21 02:35:59;;;;;;;0.20;0.10;;;;;;;;;;5029544;28;20473;-60
2023/12/21 02:38:24;;;;;;;1.60;1.48;;;;;;;;;;5016001;28;20448;-58
2023/12/21 02:40:49;;;;;;;3.87;3.60;;;;;;;;;;5021586;28;20480;-58
2023/12/21 02:43:14;;;;;;;1.27;0.20;;;;;;;;;;5030520;28;20035;-58
2023/12/21 02:45:40;;;;;;;0.90;0.20;;;;;;;;;;5032886;28;20186;-57
2023/12/21 02:48:05;;;;;;;4.20;3.83;;;;;;;;;;5025764;28;20026;-60
2023/12/21 02:50:30;;;;;;;0.55;0.10;;;;;;;;;;5032995;28;20032;-61
2023/12/21 02:52:56;;;;;;;1.05;0.22;;;;;;;;;;5026530;28;20049;-58
2023/12/21 02:55:21;;;;;;;0.40;0.20;;;;;;;;;;5028339;28;20049;-59
2023/12/21 02:57:46;;;;;;;0.60;0.20;;;;;;;;;;5030377;28;20016;-60
2023/12/21 03:00:11;;;;;;;1.08;0.65;;;;;;;;;;5024622;28;20049;-60
2023/12/21 03:02:36;;;;;;;0.90;0.13;;;;;;;;;;5015384;28;20079;-60
2023/12/21 03:05:02;;;;;;;2.60;1.17;;;;;;;;;;5024592;28;20076;-59
2023/12/21 03:07:28;;;;;;;0.97;0.10;;;;;;;;;;5023340;28;20033;-60
2023/12/21 03:09:53;;;;;;;1.15;0.10;;;;;;;;;;5034032;28;20470;-60
2023/12/21 03:12:18;;;;;;;0.93;0.20;;;;;;;;;;5022918;28;20108;-59
2023/12/21 03:14:43;;;;;;;0.30;0.10;;;;;;;;;;5020813;28;20022;-59
2023/12/21 03:17:09;;;;;;;0.98;0.17;;;;;;;;;;5026356;28;20401;-59
2023/12/21 03:19:34;;;;;;;0.77;0.20;;;;;;;;;;5023046;28;20082;-60
2023/12/21 03:21:59;;;;;;;0.43;0.10;;;;;;;;;;5030485;28;20022;-60
2023/12/21 03:24:24;;;;;;;0.50;0.20;;;;;;;;;;5033037;28;20102;-59
2023/12/21 03:26:49;;;;;;;0.43;0.15;;;;;;;;;;5027482;28;20060;-59
2023/12/21 03:29:15;;;;;;;0.30;0.20;;;;;;;;;;5029191;28;20025;-60
2023/12/21 03:31:40;;;;;;;1.57;0.13;;;;;;;;;;5024374;28;20468;-58
2023/12/21 03:34:05;;;;;;;0.38;0.22;;;;;;;;;;5024723;28;20162;-59
2023/12/21 03:36:31;;;;;;;0.10;0.10;;;;;;;;;;5016932;28;20026;-59
2023/12/21 03:38:56;;;;;;;0.95;0.55;;;;;;;;;;5019017;28;20118;-61
2023/12/21 03:41:21;;;;;;;2.07;0.20;;;;;;;;;;5032584;28;20017;-59
2023/12/21 03:43:46;;;;;;;0.20;0.10;;;;;;;;;;5030984;28;20515;-59
2023/12/21 03:46:11;;;;;;;0.20;0.20;;;;;;;;;;5023215;28;20045;-60
2023/12/21 03:48:36;;;;;;;0.10;0.08;;;;;;;;;;5031131;28;20036;-59
2023/12/21 03:51:02;;;;;;;0.70;0.50;;;;;;;;;;5017192;28;20053;-59
2023/12/21 03:53:27;;;;;;;0.85;0.20;;;;;;;;;;5024000;28;20033;-59
2023/12/21 03:55:52;;;;;;;0.13;0.10;;;;;;;;;;5032912;28;20393;-60
2023/12/21 03:58:17;;;;;;;0.20;0.00;;;;;;;;;;5032579;28;20053;-59
2023/12/21 04:00:43;;;;;;;0.10;0.10;;;;;;;;;;5029087;28;20026;-58
2023/12/21 04:03:08;;;;;;;0.15;0.05;;;;;;;;;;5030022;28;20014;-58
2023/12/21 04:05:33;;;;;;;0.55;0.30;;;;;;;;;;5012698;28;20053;-59
2023/12/21 04:07:58;;;;;;;0.13;0.00;;;;;;;;;;5012160;28;20057;-58
2023/12/21 04:10:23;;;;;;;1.45;0.88;;;;;;;;;;5012370;28;20066;-60
2023/12/21 04:12:48;;;;;;;2.28;2.13;;;;;;;;;;5018179;28;20034;-60
2023/12/21 04:15:15;;;;;;;0.30;0.10;;;;;;;;;;5020510;28;20476;-60
2023/12/21 04:17:40;;;;;;;0.20;0.00;;;;;;;;;;5026122;28;20041;-60
2023/12/21 04:20:07;;;;;;;0.10;0.10;;;;;;;;;;5026166;28;20127;-59
2023/12/21 04:22:32;;;;;;;0.32;0.20;;;;;;;;;;5027938;28;20375;-58
2023/12/21 04:24:57;;;;;;;3.33;3.13;;;;;;;;;;5020483;28;20065;-60
2023/12/21 04:27:23;;;;;;;0.20;0.00;;;;;;;;;;5021262;28;20112;-60
2023/12/21 04:29:48;;;;;;;0.75;0.20;;;;;;;;;;5022794;28;20030;-60
2023/12/21 04:32:13;;;;;;;0.47;0.10;;;;;;;;;;5022039;28;20029;-60
2023/12/21 04:34:38;;;;;;;0.10;0.00;;;;;;;;;;5029653;28;20033;-60
2023/12/21 04:37:03;;;;;;;1.38;1.27;;;;;;;;;;5023578;28;20048;-59
2023/12/21 04:39:29;;;;;;;0.52;0.10;;;;;;;;;;5022569;28;20041;-58
2023/12/21 04:41:54;;;;;;;1.00;0.53;;;;;;;;;;5028025;28;20021;-59
2023/12/21 04:44:19;;;;;;;0.10;0.07;;;;;;;;;;5027765;28;20462;-59
2023/12/21 04:46:47;;;;;;;0.32;0.20;;;;;;;;;;5021996;28;21216;-59
2023/12/21 04:49:13;;;;;;;2.38;2.22;;;;;;;;;;5031099;28;20039;-59
2023/12/21 04:51:38;;;;;;;0.60;0.32;;;;;;;;;;5020646;28;20013;-60
2023/12/21 04:54:03;;;;;;;0.22;0.08;;;;;;;;;;5023178;28;20148;-60
2023/12/21 04:56:28;;;;;;;0.25;0.10;;;;;;;;;;5012406;28;20021;-59
2023/12/21 04:58:53;;;;;;;0.95;0.82;;;;;;;;;;5011312;28;20014;-60
2023/12/21 05:01:18;;;;;;;0.10;0.00;;;;;;;;;;5011270;28;20038;-59
2023/12/21 05:03:44;;;;;;;0.10;0.10;;;;;;;;;;5011629;28;20025;-59
2023/12/21 05:06:09;;;;;;;0.35;0.05;;;;;;;;;;5010249;28;20022;-59
2023/12/21 05:08:34;;;;;;;0.70;0.50;;;;;;;;;;5022062;28;20270;-59
2023/12/21 05:10:59;;;;;;;0.20;0.00;;;;;;;;;;5020719;28;20553;-60
2023/12/21 05:13:24;;;;;;;0.30;0.20;;;;;;;;;;5017905;28;20030;-58
2023/12/21 05:15:50;;;;;;;0.50;0.10;;;;;;;;;;5017557;28;20053;-58
2023/12/21 05:18:15;;;;;;;0.40;0.10;;;;;;;;;;5031082;28;20030;-57
2023/12/21 05:20:40;;;;;;;0.27;0.27;;;;;;;;;;5030955;28;20470;-59
2023/12/21 05:23:05;;;;;;;0.00;0.00;;;;;;;;;;5021862;28;20063;-57
2023/12/21 05:25:30;;;;;;;0.57;0.57;;;;;;;;;;5029618;28;20033;-59
2023/12/21 05:27:56;;;;;;;0.67;0.40;;;;;;;;;;5024646;28;20092;-57
2023/12/21 05:30:21;;;;;;;1.88;1.40;;;;;;;;;;5028498;28;20075;-58
2023/12/21 05:32:46;;;;;;;0.95;0.38;;;;;;;;;;5027370;28;20304;-58
2023/12/21 05:35:12;;;;;;;2.00;0.30;;;;;;;;;;5021226;28;20034;-59
2023/12/21 05:37:37;;;;;;;0.68;0.30;;;;;;;;;;5023214;28;20017;-59
2023/12/21 05:40:02;;;;;;;0.08;0.08;;;;;;;;;;5018398;28;20493;-57
2023/12/21 05:42:28;;;;;;;0.43;0.10;;;;;;;;;;5018786;28;20017;-59
2023/12/21 05:44:53;;;;;;;0.00;0.00;;;;;;;;;;5015248;28;20029;-59
2023/12/21 05:47:18;;;;;;;1.20;0.10;;;;;;;;;;5027312;28;20033;-58
2023/12/21 05:49:43;;;;;;;0.20;0.00;;;;;;;;;;5027001;28;20021;-59
2023/12/21 05:52:09;;;;;;;1.50;1.35;;;;;;;;;;5024440;28;20518;-59
2023/12/21 05:54:34;;;;;;;0.32;0.20;;;;;;;;;;5027130;28;20018;-59
2023/12/21 05:56:59;;;;;;;1.63;0.20;;;;;;;;;;5024209;28;20105;-59
2023/12/21 05:59:24;;;;;;;0.50;0.23;;;;;;;;;;5025043;28;20473;-59
2023/12/21 06:01:49;;;;;;;0.93;0.70;;;;;;;;;;5026352;28;20029;-59
2023/12/21 06:04:14;;;;;;;0.80;0.43;;;;;;;;;;5017591;28;20041;-59
2023/12/21 06:06:44;;;;;;;2.25;2.08;;;;;;;;;;5013404;28;20095;-59
2023/12/21 06:09:09;;;;;;;0.47;0.17;;;;;;;;;;5026780;28;20021;-59
2023/12/21 06:11:34;;;;;;;1.08;0.28;;;;;;;;;;5026270;28;20334;-57
2023/12/21 06:14:00;;;;;;;0.22;0.10;;;;;;;;;;5030474;28;20036;-58
2023/12/21 06:16:25;;;;;;;0.53;0.10;;;;;;;;;;5030045;28;20022;-57
2023/12/21 06:18:50;;;;;;;0.68;0.20;;;;;;;;;;5030091;28;20028;-60
2023/12/21 06:21:15;;;;;;;1.27;0.30;;;;;;;;;;5033665;28;20385;-59
2023/12/21 06:23:40;;;;;;;1.90;0.83;;;;;;;;;;5024981;28;20689;-59
2023/12/21 06:26:05;;;;;;;1.27;0.43;;;;;;;;;;5021464;28;20071;-59
2023/12/21 06:28:31;;;;;;;1.13;0.30;;;;;;;;;;5030266;28;20029;-59
2023/12/21 06:30:56;;;;;;;1.23;0.43;;;;;;;;;;5029722;28;20033;-59
2023/12/21 06:33:21;;;;;;;0.40;0.20;;;;;;;;;;5030631;28;20021;-58
2023/12/21 06:35:47;;;;;;;0.70;0.20;;;;;;;;;;5030496;28;20052;-58
2023/12/21 06:38:12;;;;;;;2.63;1.70;;;;;;;;;;5029590;28;20045;-58
2023/12/21 06:40:37;;;;;;;0.10;0.10;;;;;;;;;;5020683;28;20021;-59
2023/12/21 06:43:03;;;;;;;0.20;0.20;;;;;;;;;;5014695;28;20460;-60
2023/12/21 06:45:28;;;;;;;0.65;0.17;;;;;;;;;;5010552;28;20041;-59
2023/12/21 06:47:53;;;;;;;0.45;0.10;;;;;;;;;;5010243;28;20049;-60
2023/12/21 06:50:20;;;;;;;0.57;0.20;;;;;;;;;;5009744;28;20026;-60
2023/12/21 06:52:46;;;;;;;0.08;0.00;;;;;;;;;;5023345;28;20047;-59
2023/12/21 06:55:11;;;;;;;0.43;0.10;;;;;;;;;;5021658;28;20473;-59
2023/12/21 06:57:36;;;;;;;0.47;0.15;;;;;;;;;;5010263;28;20036;-59
2023/12/21 07:00:02;;;;;;;1.30;1.20;;;;;;;;;;5009499;28;20057;-59
2023/12/21 07:02:27;;;;;;;0.60;0.10;;;;;;;;;;5042204;28;20030;-60
2023/12/21 07:04:52;;;;;;;0.40;0.00;;;;;;;;;;5029903;28;21028;-57
2023/12/21 07:07:17;;;;;;;0.00;0.00;;;;;;;;;;5030119;28;20029;-58
2023/12/21 07:09:42;;;;;;;0.40;0.10;;;;;;;;;;5027099;28;20025;-60
2023/12/21 07:12:07;;;;;;;0.25;0.17;;;;;;;;;;5014919;28;20466;-58
2023/12/21 07:14:32;;;;;;;1.20;0.77;;;;;;;;;;5018897;28;20070;-58
2023/12/21 07:16:58;;;;;;;0.63;0.57;;;;;;;;;;5011450;28;20033;-58
2023/12/21 07:19:23;;;;;;;0.00;0.00;;;;;;;;;;5010897;28;20022;-59
2023/12/21 07:21:48;;;;;;;0.63;0.20;;;;;;;;;;5010454;28;20049;-58
2023/12/21 07:24:13;;;;;;;0.73;0.15;;;;;;;;;;5011425;28;20025;-59
2023/12/21 07:26:38;;;;;;;0.43;0.20;;;;;;;;;;5013920;28;20062;-57
2023/12/21 07:29:03;;;;;;;1.02;0.25;;;;;;;;;;5026903;28;20017;-59
2023/12/21 07:31:28;;;;;;;0.57;0.20;;;;;;;;;;5032457;28;20029;-58
2023/12/21 07:33:54;;;;;;;0.20;0.10;;;;;;;;;;5032232;28;20091;-58
2023/12/21 07:36:19;;;;;;;0.85;0.30;;;;;;;;;;5028417;28;20029;-58
2023/12/21 07:38:44;;;;;;;0.77;0.30;;;;;;;;;;5013610;28;20030;-58
2023/12/21 07:41:10;;;;;;;0.73;0.27;;;;;;;;;;5024119;28;20118;-58
2023/12/21 07:43:37;;;;;;;0.47;0.20;;;;;;;;;;5021394;28;20024;-58
2023/12/21 07:46:02;;;;;;;1.08;0.47;;;;;;;;;;5028082;28;20659;-57
2023/12/21 07:48:27;;;;;;;0.67;0.23;;;;;;;;;;5021512;28;20030;-58
2023/12/21 07:50:52;;;;;;;0.80;0.30;;;;;;;;;;5022915;28;20497;-58
2023/12/21 07:53:17;;;;;;;1.38;0.15;;;;;;;;;;5029303;28;20033;-58
2023/12/21 07:55:42;;;;;;;0.93;0.20;;;;;;;;;;5018716;28;20441;-58
2023/12/21 07:58:07;;;;;;;1.02;0.30;;;;;;;;;;5025778;28;20029;-57
2023/12/21 08:00:33;;;;;;;0.27;0.23;;;;;;;;;;5025447;28;20112;-58
2023/12/21 08:02:58;;;;;;;1.17;0.20;;;;;;;;;;5025605;28;20112;-58
2023/12/21 08:05:23;;;;;;;0.98;0.45;;;;;;;;;;5028874;28;20493;-60
2023/12/21 08:07:49;;;;;;;2.70;2.50;;;;;;;;;;5029121;28;20028;-57
2023/12/21 08:10:14;;;;;;;0.95;0.30;;;;;;;;;;5027016;28;20056;-60
2023/12/21 08:12:39;;;;;;;2.53;2.23;;;;;;;;;;5023556;28;20049;-58
2023/12/21 08:15:05;;;;;;;2.00;1.63;;;;;;;;;;5017761;28;20064;-58
2023/12/21 08:17:31;;;;;;;1.60;1.30;;;;;;;;;;5027825;28;20111;-58
2023/12/21 08:19:56;;;;;;;7.32;6.93;;;;;;;;;;5025802;28;20108;-59
2023/12/21 08:22:22;;;;;;;2.90;0.20;;;;;;;;;;5027124;28;20021;-59
2023/12/21 08:24:48;;;;;;;1.13;0.85;;;;;;;;;;5029779;28;20121;-59
2023/12/21 08:27:13;;;;;;;0.82;0.10;;;;;;;;;;5027667;28;20124;-60
2023/12/21 08:29:38;;;;;;;0.52;0.32;;;;;;;;;;5021657;28;20022;-57
2023/12/21 08:32:04;;;;;;;1.17;0.70;;;;;;;;;;5016659;28;20025;-59
2023/12/21 08:34:29;;;;;;;1.52;1.25;;;;;;;;;;5008739;28;20486;-57
2023/12/21 08:36:55;;;;;;;3.33;3.03;;;;;;;;;;5026629;28;20100;-58
2023/12/21 08:39:20;;;;;;;0.83;0.40;;;;;;;;;;5028604;28;20475;-59
2023/12/21 08:41:45;;;;;;;0.90;0.10;;;;;;;;;;5026885;28;20541;-57
2023/12/21 08:44:10;;;;;;;10.45;9.82;;;;;;;;;;5022976;28;20496;-58
2023/12/21 08:46:35;;;;;;;0.73;0.13;;;;;;;;;;5019928;28;20036;-59
2023/12/21 08:49:00;;;;;;;1.57;0.40;;;;;;;;;;5018109;28;20026;-59
2023/12/21 08:51:26;;;;;;;1.73;0.55;;;;;;;;;;5018365;28;20029;-59
2023/12/21 08:53:51;;;;;;;12.10;11.30;;;;;;;;;;5027919;28;20033;-60
2023/12/21 08:56:16;;;;;;;0.98;0.40;;;;;;;;;;5027658;28;20800;-60
2023/12/21 08:58:41;;;;;;;2.90;2.60;;;;;;;;;;5021596;28;20013;-60
2023/12/21 09:01:06;;;;;;;11.97;11.17;;;;;;;;;;5022546;28;20022;-60
2023/12/21 09:03:32;;;;;;;1.17;0.87;;;;;;;;;;5029316;28;20092;-60
2023/12/21 09:05:57;;;;;;;1.47;0.77;;;;;;;;;;5021859;28;20460;-59
2023/12/21 09:08:22;;;;;;;4.95;4.55;;;;;;;;;;5027973;28;20037;-60
2023/12/21 09:10:47;;;;;;;0.80;0.37;;;;;;;;;;5030423;28;20388;-60
2023/12/21 09:13:12;;;;;;;1.33;1.00;;;;;;;;;;5026852;28;20025;-60
2023/12/21 09:15:38;;;;;;;1.92;1.75;;;;;;;;;;5026553;28;20123;-59
2023/12/21 09:18:05;;;;;;;6.37;5.83;;;;;;;;;;5030130;28;20017;-61
2023/12/21 09:20:30;;;;;;;1.25;0.73;;;;;;;;;;5031221;28;20112;-60
2023/12/21 09:22:55;;;;;;;2.28;1.13;;;;;;;;;;5032024;28;20022;-59
2023/12/21 09:25:20;;;;;;;10.30;9.47;;;;;;;;;;5034427;28;20145;-59
2023/12/21 09:27:45;;;;;;;3.50;3.10;;;;;;;;;;5031864;28;20057;-59
2023/12/21 09:30:10;;;;;;;2.50;2.25;;;;;;;;;;5030214;28;20100;-60
2023/12/21 09:32:38;;;;;;;1.90;1.07;;;;;;;;;;5021799;28;20030;-59
2023/12/21 09:35:03;;;;;;;1.63;1.17;;;;;;;;;;5030658;28;20452;-60
2023/12/21 09:37:28;;;;;;;1.23;0.98;;;;;;;;;;5030955;28;20033;-60
2023/12/21 09:39:56;;;;;;;2.08;1.88;;;;;;;;;;5030511;28;20048;-60
2023/12/21 09:42:22;;;;;;;14.35;13.55;;;;;;;;;;5027927;28;20028;-60
2023/12/21 09:44:48;;;;;;;;;;;;;;;;;;5031032;28;20017;-60
2023/12/21 09:47:16;;;;;;;1.70;1.33;;;;;;;;;;5027579;28;19913;-60
2023/12/21 09:49:41;;;;;;;1.80;1.08;;;;;;;;;;5030254;28;20083;-58
2023/12/21 09:52:07;;;;;;;8.75;8.10;;;;;;;;;;5030033;28;20104;-59
2023/12/21 09:54:34;;;;;;;1.75;1.25;;;;;;;;;;5028306;28;20160;-59
2023/12/21 09:56:59;;;;;;;5.03;4.60;;;;;;;;;;5029158;28;20087;-59
2023/12/21 09:59:30;;;;;;;2.55;2.35;;;;;;;;;;5029762;28;20105;-58
2023/12/21 10:01:55;;;;;;;7.93;7.43;;;;;;;;;;5029959;28;20056;-58
2023/12/21 10:04:20;;;;;;;3.10;1.48;;;;;;;;;;5020717;28;20474;-59
2023/12/21 10:06:46;;;;;;;0.77;0.43;;;;;;;;;;5019990;28;20077;-59
2023/12/21 10:09:13;;;;;;;2.63;2.42;;;;;;;;;;5018367;28;20490;-58
2023/12/21 10:11:38;;;;;;;30.08;28.48;;;;;;;;;;5026690;28;20100;-59
2023/12/21 10:14:04;;;;;;;5.10;4.70;;;;;;;;;;5029747;28;20100;-59
2023/12/21 10:16:29;;;;;;;4.10;3.80;;;;;;;;;;5027789;28;20544;-61
2023/12/21 10:18:54;;;;;;;4.07;3.78;;;;;;;;;;5026244;28;20056;-60
2023/12/21 10:21:21;;;;;;;1.48;1.38;;;;;;;;;;5020508;28;20034;-58
2023/12/21 10:23:46;;;;;;;15.48;14.60;;;;;;;;;;5017648;28;20018;-59
2023/12/21 10:26:11;;;;;;;0.45;0.10;;;;;;;;;;5010710;28;20026;-59
2023/12/21 10:28:37;;;;;;;4.20;3.95;;;;;;;;;;5012314;28;20065;-62
2023/12/21 10:31:04;;;;;;;10.67;10.00;;;;;;;;;;5018275;28;20490;-59
2023/12/21 10:33:30;;;;;;;0.52;0.17;;;;;;;;;;5010526;28;20107;-59
2023/12/21 10:35:56;;;;;;;4.05;3.72;;;;;;;;;;5011149;28;20108;-57
2023/12/21 10:38:24;;;;;;;2.00;1.80;;;;;;;;;;5010409;28;20117;-60
2023/12/21 10:40:49;;;;;;;13.45;12.52;;;;;;;;;;5010218;28;20421;-60
2023/12/21 10:43:15;;;;;;;1.40;0.80;;;;;;;;;;5019836;28;20240;-60
2023/12/21 10:45:44;;;;;;;2.35;1.98;;;;;;;;;;5018525;28;20056;-59
2023/12/21 10:48:12;;;;;;;9.48;8.88;;;;;;;;;;5021069;28;20393;-60
2023/12/21 10:50:37;;;;;;;3.20;2.85;;;;;;;;;;5010319;28;20018;-59
2023/12/21 10:53:03;;;;;;;8.15;7.57;;;;;;;;;;5018415;28;20022;-59
2023/12/21 10:55:28;;;;;;;1.85;1.75;;;;;;;;;;5029761;28;20056;-59
2023/12/21 10:57:54;;;;;;;27.45;25.85;;;;;;;;;;5021230;28;20026;-58
2023/12/21 11:00:21;;;;;;;1.35;0.63;;;;;;;;;;5028454;28;20021;-61
2023/12/21 11:02:47;;;;;;;4.53;4.22;;;;;;;;;;5028538;28;20449;-61
2023/12/21 11:05:26;;;;;;;1.67;1.25;;;;;;;;;;5030286;28;20394;-61
2023/12/21 11:07:53;;;;;;;6.13;5.70;;;;;;;;;;5029814;28;20393;-60
2023/12/21 11:10:19;;;;;;;1.02;0.77;;;;;;;;;;5029644;28;20017;-62
2023/12/21 11:12:44;;;;;;;0.88;0.38;;;;;;;;;;5027818;28;20039;-61
2023/12/21 11:15:10;;;;;;;1.10;0.70;;;;;;;;;;5022975;28;20026;-59
2023/12/21 11:17:36;;;;;;;2.58;0.50;;;;;;;;;;5019297;28;20025;-59
2023/12/21 11:20:02;;;;;;;5.18;4.75;;;;;;;;;;5029435;28;20048;-59
2023/12/21 11:22:27;;;;;;;2.53;1.52;;;;;;;;;;5029365;28;20029;-59
2023/12/21 11:25:07;;;;;;;2.17;1.35;;;;;;;;;;5027723;28;20484;-60
2023/12/21 11:27:35;;;;;;;6.95;6.50;;;;;;;;;;5018989;28;20104;-59
2023/12/21 11:30:10;;;;;;;14.02;13.02;;;;;;;;;;5028793;28;20033;-61
2023/12/21 11:32:36;;;;;;;1.42;1.30;;;;;;;;;;5028750;28;20112;-61
2023/12/21 11:35:01;;;;;;;1.25;0.77;;;;;;;;;;5028689;28;20104;-61
2023/12/21 11:37:26;;;;;;;1.17;0.85;;;;;;;;;;5029153;28;20041;-59
2023/12/21 11:39:53;;;;;;;3.22;2.92;;;;;;;;;;5022372;28;20496;-61
2023/12/21 11:42:31;;;;;;;1.05;0.52;;;;;;;;;;5026844;28;20048;-59
2023/12/21 11:44:59;;;;;;;3.85;3.55;;;;;;;;;;5028934;28;20057;-59
2023/12/21 11:47:25;;;;;;;1.20;0.80;;;;;;;;;;5028589;28;20029;-62
2023/12/21 11:49:51;;;;;;;11.98;11.15;;;;;;;;;;5029512;28;20025;-62
2023/12/21 11:52:23;;;;;;;1.30;0.82;;;;;;;;;;5028540;28;20388;-63
2023/12/21 11:54:48;;;;;;;9.68;9.10;;;;;;;;;;5029355;28;20374;-63
2023/12/21 11:57:14;;;;;;;2.27;2.00;;;;;;;;;;5024735;28;20132;-61
2023/12/21 11:59:39;;;;;;;;;;;;;;;;;;5022125;28;20044;-61
2023/12/21 12:02:10;;;;;;;1.92;1.23;;;;;;;;;;5020378;28;19999;-58
2023/12/21 12:04:35;;;;;;;1.30;0.90;;;;;;;;;;5028949;28;20025;-61
2023/12/21 12:07:02;;;;;;;1.10;0.80;;;;;;;;;;5029519;28;20363;-61
2023/12/21 12:09:27;;;;;;;0.45;0.25;;;;;;;;;;5029200;28;20439;-60
2023/12/21 12:11:53;;;;;;;19.75;18.15;;;;;;;;;;5024792;28;20025;-60
2023/12/21 12:14:18;;;;;;;0.47;0.30;;;;;;;;;;5026777;28;20079;-60
2023/12/21 12:16:43;;;;;;;12.00;11.30;;;;;;;;;;5028763;28;20036;-60
2023/12/21 12:19:12;;;;;;;5.33;4.93;;;;;;;;;;5027505;28;20076;-58
2023/12/21 12:21:37;;;;;;;2.03;1.80;;;;;;;;;;5018355;28;20049;-59
2023/12/21 12:24:03;;;;;;;9.18;8.52;;;;;;;;;;5023897;28;20069;-60
2023/12/21 12:26:29;;;;;;;2.97;2.75;;;;;;;;;;5020868;28;20048;-60
2023/12/21 12:28:54;;;;;;;5.20;4.60;;;;;;;;;;5024186;28;20038;-60
2023/12/21 12:31:19;;;;;;;2.83;2.63;;;;;;;;;;5020612;28;20025;-60
2023/12/21 12:33:47;;;;;;;6.53;6.03;;;;;;;;;;5020531;28;20101;-60
2023/12/21 12:36:12;;;;;;;7.22;6.72;;;;;;;;;;5029600;28;20388;-60
2023/12/21 12:38:37;;;;;;;3.55;3.25;;;;;;;;;;5029439;28;20022;-59
2023/12/21 12:41:02;;;;;;;2.77;2.57;;;;;;;;;;5021279;28;20036;-62
2023/12/21 12:43:34;;;;;;;12.20;11.50;;;;;;;;;;5028974;28;20029;-59
2023/12/21 12:45:59;;;;;;;5.25;4.82;;;;;;;;;;5030741;28;20048;-60
2023/12/21 12:48:24;;;;;;;6.83;6.33;;;;;;;;;;5020815;28;20485;-60
2023/12/21 12:50:50;;;;;;;18.50;16.98;;;;;;;;;;5020740;28;20021;-59
2023/12/21 12:53:15;;;;;;;8.03;7.53;;;;;;;;;;5024156;28;22062;-60
2023/12/21 12:55:44;;;;;;;6.50;6.05;;;;;;;;;;5027666;28;20432;-59
2023/12/21 12:58:09;;;;;;;14.00;13.15;;;;;;;;;;5011868;28;20235;-60
2023/12/21 13:00:34;;;;;;;19.65;18.58;;;;;;;;;;5012200;28;20722;-59
2023/12/21 13:03:00;;;;;;;1.63;1.17;;;;;;;;;;5024210;28;20025;-58
2023/12/21 13:05:25;;;;;;;7.05;6.55;;;;;;;;;;5023308;28;20036;-60
2023/12/21 13:07:50;;;;;;;24.17;22.80;;;;;;;;;;5027959;28;20034;-60
2023/12/21 13:10:16;;;;;;;15.15;14.05;;;;;;;;;;5026508;28;20025;-59
2023/12/21 13:12:42;;;;;;;7.00;6.50;;;;;;;;;;5023203;28;20021;-60
2023/12/21 13:15:08;;;;;;;7.20;6.70;;;;;;;;;;5025415;28;20045;-61
2023/12/21 13:17:33;;;;;;;1.40;0.88;;;;;;;;;;5025927;28;20385;-60
2023/12/21 13:19:58;;;;;;;1.55;0.30;;;;;;;;;;5019581;28;20393;-60
2023/12/21 13:22:23;;;;;;;2.88;2.58;;;;;;;;;;5023905;28;20021;-60
2023/12/21 13:24:48;;;;;;;1.97;1.57;;;;;;;;;;5026391;28;20018;-60
2023/12/21 13:27:13;;;;;;;1.10;1.00;;;;;;;;;;5030400;28;20033;-60
2023/12/21 13:29:39;;;;;;;48.92;45.05;;;;;;;;;;5024487;28;20072;-60
2023/12/21 13:32:04;;;;;;;1.55;0.95;;;;;;;;;;5018071;28;20026;-59
2023/12/21 13:34:30;;;;;;;8.05;7.55;;;;;;;;;;5024200;28;20021;-60
2023/12/21 13:36:55;;;;;;;7.53;6.93;;;;;;;;;;5014648;28;20028;-59
2023/12/21 13:39:20;;;;;;;14.15;13.32;;;;;;;;;;5024463;28;20025;-59
2023/12/21 13:41:46;;;;;;;22.77;21.58;;;;;;;;;;5016539;28;20104;-60
2023/12/21 13:44:11;;;;;;;1.20;0.73;;;;;;;;;;5013242;28;20044;-60
2023/12/21 13:46:37;;;;;;;7.03;6.53;;;;;;;;;;5027222;28;20029;-60
2023/12/21 13:49:02;;;;;;;3.38;2.28;;;;;;;;;;5015348;28;20560;-63
2023/12/21 13:51:29;;;;;;;3.53;3.22;;;;;;;;;;5029697;28;20067;-64
2023/12/21 13:53:54;;;;;;;1.10;1.00;;;;;;;;;;5021156;28;20550;-63
2023/12/21 13:56:19;;;;;;;1.45;1.35;;;;;;;;;;5028679;28;20104;-65
2023/12/21 13:58:45;;;;;;;1.33;1.10;;;;;;;;;;5021828;28;20426;-64
2023/12/21 14:01:10;;;;;;;4.00;3.67;;;;;;;;;;5028851;28;20065;-64
2023/12/21 14:03:35;;;;;;;1.05;0.63;;;;;;;;;;5029277;28;20032;-64
2023/12/21 14:06:01;;;;;;;9.68;9.07;;;;;;;;;;5027101;28;20096;-64
2023/12/21 14:08:26;;;;;;;13.18;12.38;;;;;;;;;;5021750;28;20162;-63
2023/12/21 14:10:51;;;;;;;8.85;7.72;;;;;;;;;;5027966;28;20009;-64
2023/12/21 14:13:16;;;;;;;12.17;11.40;;;;;;;;;;5031588;28;20040;-64
2023/12/21 14:15:41;;;;;;;2.15;1.85;;;;;;;;;;5031711;28;20025;-63
2023/12/21 14:18:07;;;;;;;2.37;2.17;;;;;;;;;;5029825;28;20030;-63
2023/12/21 14:20:32;;;;;;;4.07;3.77;;;;;;;;;;5027385;28;20266;-64
2023/12/21 14:22:57;;;;;;;11.80;11.13;;;;;;;;;;5034820;28;20063;-63
2023/12/21 14:25:22;;;;;;;1.27;0.77;;;;;;;;;;5033999;28;20025;-63
2023/12/21 14:27:47;;;;;;;9.47;5.33;;;;;;;;;;5038481;28;20075;-63
2023/12/21 14:30:13;;;;;;;1.27;0.87;;;;;;;;;;5031313;28;20036;-63
2023/12/21 14:32:38;;;;;;;114.13;89.75;;;;;;;;;;5033965;28;20018;-64